Time;durP1;ratioP1;P1;durP2;ratioP2;P2;SDS_P1;SDS_P2;PMS_P1;PMS_P2;Temp;Humidity;BMP_temperature;BMP_pressure;BME280_temperature;BME280_humidity;BME280_pressure;Samples;Min_cycle;Max_cycle;Signal;HPM_P1;HPM_P2
2022/11/01 00:01:24;;;;;;;5.45;2.30;;;16.50;99.90;;;16.70;100.00;100575.06;5127926;28;20061;-78
2022/11/01 00:03:56;;;;;;;5.15;2.45;;;16.50;99.90;;;16.70;100.00;100570.69;5112488;28;20047;-79
2022/11/01 00:06:28;;;;;;;6.80;2.58;;;16.50;99.90;;;16.74;100.00;100569.81;5111766;28;20053;-79
2022/11/01 00:09:03;;;;;;;5.35;2.50;;;16.50;99.90;;;16.77;100.00;100558.44;5128057;28;20065;-78
2022/11/01 00:11:35;;;;;;;5.05;2.40;;;16.50;99.90;;;16.80;100.00;100547.91;5127590;28;20134;-78
2022/11/01 00:14:08;;;;;;;8.13;2.90;;;16.60;99.90;;;16.82;100.00;100546.16;5145140;28;20039;-78
2022/11/01 00:16:41;;;;;;;5.85;2.45;;;16.60;99.90;;;16.86;100.00;100536.56;5127695;28;20055;-78
2022/11/01 00:19:15;;;;;;;5.00;2.20;;;16.60;99.90;;;16.88;100.00;100525.13;5127957;28;20058;-78
2022/11/01 00:21:47;;;;;;;4.28;2.17;;;16.60;99.90;;;16.92;100.00;100520.78;5127654;28;20053;-78
2022/11/01 00:24:21;;;;;;;6.57;2.67;;;16.70;99.90;;;16.95;100.00;100513.78;5111738;28;20053;-79
2022/11/01 00:26:54;;;;;;;5.28;2.40;;;16.70;99.90;;;16.98;100.00;100505.91;5128661;28;20054;-78
2022/11/01 00:29:27;;;;;;;6.57;3.13;;;16.70;99.90;;;17.02;100.00;100505.03;5112060;28;20396;-78
2022/11/01 00:32:00;;;;;;;5.43;2.50;;;16.80;99.90;;;17.04;100.00;100494.50;5144819;28;20133;-78
2022/11/01 00:34:33;;;;;;;6.72;2.80;;;16.80;99.90;;;17.05;100.00;100494.50;5127646;28;20553;-78
2022/11/01 00:37:05;;;;;;;4.82;2.47;;;16.80;99.90;;;17.08;100.00;100499.81;5111664;28;20051;-79
2022/11/01 00:39:40;;;;;;;8.98;3.05;;;16.80;99.90;;;17.12;100.00;100491.91;5127384;28;20035;-78
2022/11/01 00:42:12;;;;;;;6.03;2.85;;;16.90;99.90;;;17.12;100.00;100494.53;5111742;28;20054;-79
2022/11/01 00:44:45;;;;;;;8.15;2.50;;;16.90;99.90;;;17.15;100.00;100489.25;5111650;28;20050;-78
2022/11/01 00:47:17;;;;;;;4.80;2.20;;;16.90;99.90;;;17.16;100.00;100489.28;5112036;28;20050;-78
2022/11/01 00:49:49;;;;;;;5.55;2.22;;;16.90;99.90;;;17.17;100.00;100490.16;5144298;28;20047;-79
2022/11/01 00:52:22;;;;;;;4.82;2.50;;;16.90;99.90;;;17.18;100.00;100519.13;5126818;28;20551;-78
2022/11/01 00:54:57;;;;;;;6.00;2.35;;;16.90;99.90;;;17.19;100.00;100526.16;5111883;28;20062;-79
2022/11/01 00:57:29;;;;;;;4.43;2.30;;;16.90;99.90;;;17.20;100.00;100538.44;5144600;28;20046;-78
2022/11/01 01:00:02;;;;;;;3.55;1.95;;;16.90;99.90;;;17.20;100.00;100529.66;5126962;28;20441;-79
2022/11/01 01:02:40;;;;;;;5.70;2.50;;;16.90;99.90;;;17.19;100.00;100535.81;5157261;28;20061;-79
2022/11/01 01:05:13;;;;;;;5.13;2.35;;;16.90;99.90;;;17.19;100.00;100546.34;5130639;28;20053;-79
2022/11/01 01:07:45;;;;;;;5.22;2.42;;;16.90;99.90;;;17.21;100.00;100560.41;5164543;28;20411;-79
2022/11/01 01:10:20;;;;;;;4.40;2.40;;;16.90;99.90;;;17.18;100.00;100558.66;5147607;28;20046;-79
2022/11/01 01:12:53;;;;;;;8.52;2.78;;;16.90;99.90;;;17.15;100.00;100555.09;5164181;28;20046;-79
2022/11/01 01:15:26;;;;;;;7.00;2.72;;;16.90;99.90;;;17.09;100.00;100551.59;5164347;28;20104;-79
2022/11/01 01:17:58;;;;;;;10.27;3.72;;;16.90;99.90;;;17.03;100.00;100550.69;5147276;28;20402;-79
2022/11/01 01:20:32;;;;;;;4.28;2.10;;;16.80;99.90;;;17.00;100.00;100543.63;5130870;28;20050;-78
2022/11/01 01:23:05;;;;;;;5.57;2.88;;;16.80;99.90;;;16.97;100.00;100535.72;5164109;28;20136;-78
2022/11/01 01:25:43;;;;;;;9.98;2.88;;;16.80;99.90;;;16.93;100.00;100536.59;5146782;28;20046;-79
2022/11/01 01:28:15;;;;;;;5.57;2.50;;;16.70;99.90;;;16.92;100.00;100526.94;5163211;28;20050;-79
2022/11/01 01:30:47;;;;;;;8.23;2.60;;;16.70;99.90;;;16.92;100.00;100521.66;5146264;28;20046;-79
2022/11/01 01:33:19;;;;;;;9.73;3.30;;;16.70;99.90;;;16.91;100.00;100525.19;5146384;28;20396;-79
2022/11/01 01:35:52;;;;;;;4.50;2.33;;;16.70;99.90;;;16.91;100.00;100530.44;5146473;28;20070;-78
2022/11/01 01:38:24;;;;;;;4.57;2.15;;;16.70;99.90;;;16.91;100.00;100526.94;5130826;28;20047;-78
2022/11/01 01:41:54;;;;;;;6.03;2.33;;;16.70;99.90;;;16.91;100.00;100530.44;5146305;28;20058;-78
2022/11/01 01:43:51;;;;;;;10.50;3.05;;;16.70;99.90;;;16.89;100.00;100520.75;5146405;28;20418;-78
2022/11/01 01:46:23;;;;;;;9.38;3.17;;;16.60;99.90;;;16.88;100.00;100511.97;5131145;28;20395;-78
2022/11/01 01:49:00;;;;;;;5.13;2.30;;;16.60;99.90;;;16.88;100.00;100508.47;5164042;28;20046;-78
2022/11/01 01:51:33;;;;;;;5.70;2.40;;;16.60;99.90;;;16.87;100.00;100507.59;5163558;28;20070;-78
2022/11/01 01:54:06;;;;;;;3.97;2.03;;;16.60;99.90;;;16.87;100.00;100504.97;5146557;28;20054;-78
2022/11/01 01:56:41;;;;;;;4.13;2.25;;;16.60;99.90;;;16.85;100.00;100493.56;5130307;28;20057;-78
2022/11/01 01:59:14;;;;;;;3.72;1.90;;;16.60;99.90;;;16.85;100.00;100498.81;5130646;28;20056;-78
2022/11/01 02:01:46;;;;;;;4.15;2.10;;;16.60;99.90;;;16.84;100.00;100497.06;5130750;28;20510;-78
2022/11/01 02:04:29;;;;;;;4.65;2.08;;;16.60;99.90;;;16.84;100.00;100498.81;5147528;28;20057;-78
2022/11/01 02:07:02;;;;;;;4.60;2.00;;;16.60;99.90;;;16.82;100.00;100490.88;5131355;28;20055;-79
2022/11/01 02:09:36;;;;;;;4.68;2.00;;;16.60;99.90;;;16.83;100.00;100499.69;5130574;28;20066;-77
2022/11/01 02:12:11;;;;;;;4.32;1.92;;;16.60;99.90;;;16.82;100.00;100514.59;5145930;28;20450;-78
2022/11/01 02:14:45;;;;;;;4.63;2.38;;;16.60;99.90;;;16.82;100.00;100519.84;5146253;28;20414;-78
2022/11/01 02:17:24;;;;;;;6.47;2.45;;;16.60;99.90;;;16.81;100.00;100510.19;5130568;28;20403;-78
2022/11/01 02:20:38;;;;;;;5.22;2.38;;;16.50;99.90;;;16.80;100.00;100517.22;5145963;28;20082;-79
2022/11/01 02:23:39;;;;;;;5.43;2.53;;;16.60;99.90;;;16.79;100.00;100522.47;5146350;28;20478;-78
2022/11/01 02:26:27;;;;;;;;;;;16.50;99.90;;;16.77;100.00;100521.59;5146279;28;20050;-79
2022/11/01 02:29:15;;;;;;;3.50;2.00;;;16.50;99.90;;;16.76;100.00;100530.38;5129923;28;19929;-79
2022/11/01 02:32:17;;;;;;;4.32;2.00;;;16.50;99.90;;;16.74;100.00;100518.94;5163279;28;20042;-78
2022/11/01 02:34:57;;;;;;;6.03;2.42;;;16.50;99.90;;;16.73;100.00;100527.72;5145594;28;20054;-79
2022/11/01 02:37:37;;;;;;;4.82;2.15;;;16.50;99.90;;;16.73;100.00;100523.31;5146190;28;20042;-78
2022/11/01 02:40:17;;;;;;;4.78;2.13;;;16.50;99.90;;;16.73;100.00;100525.06;5130007;28;20055;-79
2022/11/01 02:42:57;;;;;;;3.63;1.88;;;16.50;99.90;;;16.72;100.00;100507.53;5145622;28;20095;-78
2022/11/01 02:45:35;;;;;;;3.67;2.42;;;16.50;99.90;;;16.71;100.00;100506.66;5163486;28;20458;-79
2022/11/01 02:48:10;;;;;;;4.15;2.08;;;16.50;99.90;;;16.72;100.00;100507.53;5148803;28;20506;-79
2022/11/01 02:50:46;;;;;;;4.68;2.30;;;16.40;99.90;;;16.71;100.00;100511.03;5149589;28;20423;-78
2022/11/01 02:53:19;;;;;;;4.65;2.08;;;16.50;99.90;;;16.71;100.00;100521.56;5166769;28;20146;-78
2022/11/01 02:55:52;;;;;;;3.35;1.80;;;16.50;99.90;;;16.71;100.00;100517.19;5133224;28;20057;-79
2022/11/01 02:58:30;;;;;;;3.55;1.98;;;16.50;99.90;;;16.73;100.00;100519.81;5166628;28;20401;-78
2022/11/01 03:01:14;;;;;;;7.15;2.03;;;16.50;99.90;;;16.74;100.00;100521.56;5149251;28;20074;-79
2022/11/01 03:03:49;;;;;;;5.13;2.47;;;16.50;99.90;;;16.75;100.00;100524.19;5133961;28;20199;-78
2022/11/01 03:06:28;;;;;;;4.82;2.45;;;16.50;99.90;;;16.76;100.00;100526.00;5149451;28;20061;-78
2022/11/01 03:09:05;;;;;;;3.60;2.00;;;16.50;99.90;;;16.78;100.00;100531.25;5149331;28;20058;-79
2022/11/01 03:11:49;;;;;;;3.10;1.90;;;16.50;99.90;;;16.79;100.00;100539.16;5148546;28;20061;-79
2022/11/01 03:14:32;;;;;;;3.67;1.88;;;16.60;99.90;;;16.80;100.00;100538.28;5133209;28;20054;-79
2022/11/01 03:17:12;;;;;;;3.30;1.90;;;16.50;99.90;;;16.83;100.00;100547.97;5166456;28;20042;-78
2022/11/01 03:19:51;;;;;;;4.30;1.95;;;16.60;99.90;;;16.83;100.00;100542.69;5132496;28;20278;-78
2022/11/01 03:22:34;;;;;;;3.25;1.95;;;16.60;99.90;;;16.85;100.00;100543.56;5133287;28;20042;-77
2022/11/01 03:28:04;;;;;;;4.20;1.88;;;16.60;99.90;;;16.87;100.00;100549.72;5166161;28;20057;-78
2022/11/01 03:30:40;;;;;;;3.13;1.88;;;16.60;99.90;;;16.87;100.00;100544.44;5148317;28;20572;-78
2022/11/01 03:33:17;;;;;;;4.05;1.90;;;16.60;99.90;;;16.87;100.00;100543.56;5148656;28;20249;-78
2022/11/01 03:35:55;;;;;;;5.47;2.47;;;16.60;99.90;;;16.87;100.00;100541.81;5133180;28;20427;-78
2022/11/01 03:38:33;;;;;;;5.70;2.80;;;16.60;99.90;;;16.87;100.00;100548.84;5132882;28;20430;-78
2022/11/01 03:41:10;;;;;;;3.63;1.85;;;16.60;99.90;;;16.87;100.00;100543.56;5133021;28;20060;-78
2022/11/01 03:43:43;;;;;;;3.55;2.05;;;16.60;99.90;;;16.89;100.00;100548.00;5148977;28;20491;-78
2022/11/01 03:46:17;;;;;;;5.13;2.20;;;16.60;99.90;;;16.91;100.00;100556.78;5132742;28;20046;-78
2022/11/01 03:48:49;;;;;;;3.85;1.88;;;16.60;99.90;;;16.93;100.00;100557.66;5148715;28;20050;-78
2022/11/01 03:51:23;;;;;;;3.25;2.10;;;16.70;99.90;;;16.97;100.00;100566.47;5147869;28;20049;-80
2022/11/01 03:53:56;;;;;;;3.97;2.00;;;16.70;99.90;;;16.98;100.00;100563.81;5148243;28;20058;-78
2022/11/01 03:56:28;;;;;;;5.85;2.17;;;16.70;99.90;;;17.00;100.00;100556.81;5148737;28;20050;-78
2022/11/01 03:59:01;;;;;;;5.30;2.45;;;16.70;99.90;;;17.04;100.00;100566.50;5131338;28;20414;-77
2022/11/01 04:01:35;;;;;;;5.32;1.75;;;16.80;99.90;;;17.05;100.00;100565.59;5165000;28;20125;-78
2022/11/01 04:04:08;;;;;;;3.83;2.20;;;16.80;99.90;;;17.12;100.00;100565.63;5148249;28;20119;-78
2022/11/01 04:06:42;;;;;;;3.30;1.80;;;16.80;99.90;;;17.13;100.00;100570.91;5148879;28;20054;-78
2022/11/01 04:09:15;;;;;;;4.28;1.83;;;16.90;99.90;;;17.13;100.00;100570.91;5132518;28;20046;-78
2022/11/01 04:11:47;;;;;;;4.13;2.20;;;16.80;99.90;;;17.13;100.00;100572.66;5148288;28;20054;-78
2022/11/01 04:22:51;;;;;;;5.40;2.67;;;16.90;99.90;;;17.19;100.00;100594.63;5137022;28;20474;-78
2022/11/01 04:25:23;;;;;;;5.95;2.40;;;16.90;99.90;;;17.20;100.00;100590.25;5131949;28;20061;-78
2022/11/01 04:27:56;;;;;;;4.55;2.00;;;16.90;99.90;;;17.26;100.00;100598.19;5165369;28;20506;-78
2022/11/01 04:30:30;;;;;;;3.28;1.98;;;17.00;99.90;;;17.24;100.00;100595.56;5147807;28;20042;-78
2022/11/01 04:33:02;;;;;;;2.85;1.95;;;17.00;99.90;;;17.26;100.00;100591.16;5147465;28;20055;-78
2022/11/01 04:35:36;;;;;;;3.65;1.95;;;17.00;99.90;;;17.29;100.00;100606.13;5131782;28;20054;-78
2022/11/01 04:38:11;;;;;;;7.50;2.20;;;17.00;99.90;;;17.30;100.00;100607.88;5147066;28;20061;-78
2022/11/01 04:40:46;;;;;;;4.22;2.08;;;17.00;99.90;;;17.26;100.00;100612.22;5164410;28;20053;-78
2022/11/01 04:43:21;;;;;;;3.35;1.70;;;17.00;99.90;;;17.26;100.00;100616.63;5147635;28;20045;-78
2022/11/01 04:45:55;;;;;;;4.47;2.05;;;17.00;99.90;;;17.27;100.00;100628.91;5147129;28;20123;-78
2022/11/01 04:48:27;;;;;;;3.42;1.83;;;17.00;99.90;;;17.25;100.00;100635.94;5147052;28;20502;-78
2022/11/01 04:51:02;;;;;;;3.13;1.75;;;17.00;99.90;;;17.24;100.00;100618.38;5147257;28;20050;-78
2022/11/01 04:53:36;;;;;;;4.00;1.85;;;17.00;99.90;;;17.23;100.00;100633.31;5248529;23;20407;-70
2022/11/01 04:56:10;;;;;;;3.75;1.85;;;17.00;99.90;;;17.24;100.00;100628.91;5162236;28;20042;-72
2022/11/01 04:58:43;;;;;;;3.35;1.70;;;17.00;99.90;;;17.23;100.00;100643.84;5164164;28;20116;-72
2022/11/01 05:01:15;;;;;;;3.90;1.90;;;16.90;99.90;;;17.21;100.00;100645.56;5163709;28;20121;-72
2022/11/01 05:03:48;;;;;;;2.92;1.70;;;16.90;99.90;;;17.20;100.00;100645.56;5164205;28;20047;-72
2022/11/01 05:06:20;;;;;;;3.55;1.80;;;16.90;99.90;;;17.19;100.00;100644.69;5164488;28;20101;-72
2022/11/01 05:08:56;;;;;;;4.82;1.83;;;16.90;99.90;;;17.19;100.00;100646.44;5164216;28;20066;-72
2022/11/01 05:11:28;;;;;;;3.95;1.73;;;16.90;99.90;;;17.17;100.00;100640.28;5164063;28;20050;-71
2022/11/01 05:14:00;;;;;;;5.05;2.55;;;16.90;99.90;;;17.15;100.00;100640.28;5162771;28;20050;-72
2022/11/01 05:16:32;;;;;;;2.65;1.60;;;16.90;99.90;;;17.14;100.00;100645.53;5164272;28;20042;-72
2022/11/01 05:19:04;;;;;;;3.95;1.90;;;16.90;99.90;;;17.12;100.00;100636.75;5164076;28;20046;-72
2022/11/01 05:21:36;;;;;;;4.82;1.83;;;16.90;99.90;;;17.14;100.00;100649.03;5162485;28;20050;-71
2022/11/01 05:24:10;;;;;;;5.45;2.40;;;16.90;99.90;;;17.13;100.00;100649.03;5163956;28;20132;-72
2022/11/01 05:26:42;;;;;;;5.82;1.90;;;16.90;99.90;;;17.14;100.00;100648.16;5163935;28;20050;-72
2022/11/01 05:29:14;;;;;;;3.65;1.40;;;16.90;99.90;;;17.15;100.00;100652.56;5164278;28;20042;-72
2022/11/01 05:31:47;;;;;;;2.75;1.60;;;16.90;99.90;;;17.17;100.00;100664.00;5163659;28;20038;-72
2022/11/01 05:34:19;;;;;;;3.47;1.70;;;16.90;99.90;;;17.15;100.00;100671.91;5163887;28;20125;-72
2022/11/01 05:36:51;;;;;;;3.47;1.88;;;16.90;99.90;;;17.16;100.00;100688.56;5162419;28;20060;-72
2022/11/01 05:39:24;;;;;;;3.13;2.00;;;16.90;99.90;;;17.17;100.00;100685.06;5163835;28;20721;-72
2022/11/01 05:41:56;;;;;;;3.88;1.80;;;16.90;99.90;;;17.21;100.00;100686.81;5163461;28;20057;-72
2022/11/01 05:44:29;;;;;;;4.60;1.90;;;16.90;99.90;;;17.21;100.00;100689.47;5163961;28;20050;-72
2022/11/01 05:47:03;;;;;;;5.20;1.98;;;16.90;99.90;;;17.19;100.00;100692.09;5163953;28;20050;-72
2022/11/01 05:49:35;;;;;;;4.53;1.80;;;16.90;99.90;;;17.21;100.00;100690.34;5163810;28;20446;-72
2022/11/01 05:52:07;;;;;;;5.32;1.73;;;16.90;99.90;;;17.22;100.00;100696.53;5163440;28;20049;-72
2022/11/01 05:54:41;;;;;;;6.85;1.90;;;16.90;99.90;;;17.20;100.00;100714.94;5164084;28;20074;-72
2022/11/01 05:57:13;;;;;;;4.80;1.85;;;16.90;99.90;;;17.19;100.00;100725.47;5163782;28;20057;-72
2022/11/01 05:59:45;;;;;;;3.75;1.60;;;16.90;99.90;;;17.20;100.00;100721.94;5162076;28;20496;-72
2022/11/01 06:02:17;;;;;;;3.97;1.70;;;16.90;99.90;;;17.16;100.00;100725.47;5163649;28;20060;-72
2022/11/01 06:04:49;;;;;;;5.18;1.73;;;16.90;99.90;;;17.15;100.00;100731.56;5163993;28;20046;-71
2022/11/01 06:07:21;;;;;;;3.90;1.90;;;16.90;99.90;;;17.14;100.00;100737.72;5163669;28;20057;-70
2022/11/01 06:09:55;;;;;;;3.42;2.00;;;16.90;99.90;;;17.11;100.00;100742.97;5163154;28;20053;-70
2022/11/01 06:12:27;;;;;;;3.05;1.60;;;16.90;99.90;;;17.08;100.00;100744.72;5163351;28;20054;-70
2022/11/01 06:14:59;;;;;;;4.88;2.08;;;16.80;99.90;;;17.07;100.00;100748.19;5163695;28;20108;-70
2022/11/01 06:17:31;;;;;;;3.50;1.67;;;16.80;99.90;;;17.04;100.00;100756.09;5162173;28;20060;-70
2022/11/01 06:20:04;;;;;;;2.65;1.63;;;16.80;99.90;;;17.00;100.00;100756.91;5161765;28;20060;-69
2022/11/01 06:22:36;;;;;;;2.50;1.40;;;16.80;99.90;;;16.98;100.00;100753.41;5165786;28;20046;-69
2022/11/01 06:25:11;;;;;;;3.50;1.50;;;16.70;99.90;;;16.95;100.00;100757.75;5166187;28;20050;-69
2022/11/01 06:27:42;;;;;;;;;;;16.70;99.90;;;16.91;100.00;100767.38;5167791;28;20042;-70
2022/11/01 06:30:15;;;;;;;1.65;1.25;;;16.70;99.90;;;16.90;100.00;100781.44;5166742;28;19927;-69
2022/11/01 06:32:47;;;;;;;2.70;1.30;;;16.70;99.90;;;16.87;100.00;100781.38;5166585;28;20054;-69
2022/11/01 06:35:19;;;;;;;1.98;1.10;;;16.60;99.90;;;16.85;100.00;100782.25;5167027;28;20125;-69
2022/11/01 06:37:51;;;;;;;2.25;1.17;;;16.60;99.90;;;16.83;100.00;100790.16;5167311;28;20042;-69
2022/11/01 06:40:25;;;;;;;1.13;0.88;;;16.60;99.90;;;16.80;100.00;100800.63;5166587;28;20127;-69
2022/11/01 06:43:00;;;;;;;2.78;1.20;;;16.50;99.90;;;16.76;100.00;100796.22;5166897;28;20077;-69
2022/11/01 06:45:33;;;;;;;2.50;1.17;;;16.50;99.90;;;16.73;100.00;100799.69;5167255;28;20050;-69
2022/11/01 06:48:06;;;;;;;1.17;0.95;;;16.40;99.90;;;16.71;100.00;100808.44;5167188;28;20517;-69
2022/11/01 06:50:38;;;;;;;2.65;1.50;;;16.50;99.90;;;16.69;100.00;100816.31;5166467;28;20042;-69
2022/11/01 06:53:10;;;;;;;1.73;1.38;;;16.40;99.90;;;16.68;100.00;100824.16;5166819;28;20459;-69
2022/11/01 06:55:44;;;;;;;2.42;1.13;;;16.40;99.90;;;16.67;100.00;100825.03;5166936;28;20054;-69
2022/11/01 06:58:16;;;;;;;2.40;1.30;;;16.40;99.90;;;16.67;100.00;100835.56;5166690;28;20184;-69
2022/11/01 07:00:48;;;;;;;2.40;1.23;;;16.40;99.90;;;16.69;100.00;100839.06;5166407;28;20050;-70
2022/11/01 07:03:21;;;;;;;2.40;1.30;;;16.40;99.90;;;16.68;100.00;100848.72;5166490;28;20503;-72
2022/11/01 07:05:53;;;;;;;2.85;1.13;;;16.40;99.90;;;16.69;100.00;100850.53;5165636;28;20050;-56
2022/11/01 07:08:25;;;;;;;2.58;1.05;;;16.40;99.90;;;16.70;100.00;100854.94;5164933;28;20038;-56
2022/11/01 07:10:59;;;;;;;1.85;1.23;;;16.40;99.90;;;16.72;100.00;100862.84;5158653;28;20046;-57
2022/11/01 07:13:32;;;;;;;1.67;1.00;;;16.40;99.90;;;16.73;100.00;100873.38;5165359;28;20499;-57
2022/11/01 07:16:06;;;;;;;3.38;1.30;;;16.40;99.90;;;16.73;100.00;100883.91;5163546;28;20046;-56
2022/11/01 07:18:38;;;;;;;3.25;1.25;;;16.40;99.90;;;16.74;100.00;100895.31;5150176;28;20718;-56
2022/11/01 07:21:10;;;;;;;2.60;1.10;;;16.40;99.90;;;16.73;100.00;100893.56;5162846;28;20514;-55
2022/11/01 07:23:42;;;;;;;2.28;1.27;;;16.40;99.90;;;16.73;100.00;100904.97;5164250;28;20396;-56
2022/11/01 07:26:16;;;;;;;2.00;0.95;;;16.40;99.90;;;16.72;100.00;100912.84;5163961;28;20046;-55
2022/11/01 07:28:49;;;;;;;3.17;1.08;;;16.40;99.90;;;16.72;100.00;100912.84;5172032;28;20100;-56
2022/11/01 07:31:21;;;;;;;1.88;1.00;;;16.40;99.90;;;16.71;100.00;100917.25;5164251;28;20045;-56
2022/11/01 07:33:54;;;;;;;1.80;0.90;;;16.40;99.90;;;16.69;100.00;100923.31;5163757;28;20042;-56
2022/11/01 07:36:26;;;;;;;1.42;0.90;;;16.40;99.90;;;16.70;100.00;100930.41;5167470;28;20046;-56
2022/11/01 07:38:58;;;;;;;3.13;1.10;;;16.40;99.90;;;16.70;100.00;100940.91;5164864;28;20048;-56
2022/11/01 07:41:32;;;;;;;3.13;0.82;;;16.40;99.90;;;16.78;100.00;100944.53;5165118;28;20050;-57
2022/11/01 07:44:04;;;;;;;2.17;0.82;;;16.50;99.90;;;16.86;100.00;100952.50;5164973;28;20066;-57
2022/11/01 07:46:37;;;;;;;2.10;0.93;;;16.60;99.90;;;16.91;100.00;100962.22;5164405;28;20046;-58
2022/11/01 07:49:09;;;;;;;2.67;0.90;;;16.70;99.90;;;16.98;100.00;100968.44;5163468;28;20056;-58
2022/11/01 07:51:41;;;;;;;1.10;0.85;;;16.70;99.90;;;17.00;99.29;100967.59;5163446;28;20054;-57
2022/11/01 07:54:13;;;;;;;1.52;0.70;;;16.80;99.90;;;17.03;98.06;100982.56;5164533;28;20049;-57
2022/11/01 07:56:48;;;;;;;1.58;0.70;;;16.80;99.90;;;17.03;96.58;100993.97;5164615;28;20656;-58
2022/11/01 07:59:20;;;;;;;2.08;0.70;;;16.80;99.90;;;17.05;95.74;101001.88;5165529;28;20105;-57
2022/11/01 08:01:52;;;;;;;1.85;0.93;;;16.80;99.90;;;17.03;94.36;100995.72;5164056;28;20060;-57
2022/11/01 08:04:24;;;;;;;2.67;0.98;;;16.80;99.90;;;17.05;94.48;101001.88;5162910;28;20057;-58
2022/11/01 08:06:56;;;;;;;1.65;0.57;;;16.80;99.90;;;17.11;93.64;101016.88;5164452;28;20057;-58
2022/11/01 08:09:28;;;;;;;0.77;0.63;;;16.90;99.90;;;17.19;92.19;101007.31;5163962;28;20440;-55
2022/11/01 08:12:02;;;;;;;1.25;0.60;;;16.90;99.80;;;17.30;89.27;101017.09;5161785;28;20543;-55
2022/11/01 08:14:34;;;;;;;0.93;0.40;;;16.90;99.10;;;17.62;87.41;101017.44;5163785;28;20049;-55
2022/11/01 08:17:07;;;;;;;2.25;0.77;;;17.10;98.50;;;18.34;85.13;101027.72;5164113;28;20048;-55
2022/11/01 08:19:39;;;;;;;3.47;0.70;;;17.60;98.20;;;19.06;80.63;101034.28;5163735;28;20049;-55
2022/11/01 08:22:11;;;;;;;3.53;0.65;;;18.20;96.80;;;19.61;77.27;101034.47;5164260;28;20049;-56
2022/11/01 08:24:43;;;;;;;3.28;1.00;;;18.70;95.10;;;20.08;75.57;101038.91;5164717;28;20117;-59
2022/11/01 08:27:17;;;;;;;1.38;0.40;;;19.20;93.90;;;20.40;73.59;101041.53;5163729;28;20042;-60
2022/11/01 08:29:49;;;;;;;0.55;0.50;;;19.60;92.50;;;20.50;71.75;101050.38;5162412;28;20049;-58
2022/11/01 08:32:21;;;;;;;2.88;0.60;;;19.80;91.00;;;20.42;71.34;101057.44;5164157;28;20052;-55
2022/11/01 08:34:54;;;;;;;1.67;0.68;;;19.90;89.60;;;20.36;75.28;101063.59;5164288;28;20047;-55
2022/11/01 08:37:26;;;;;;;2.65;0.60;;;19.90;91.40;;;20.40;71.66;101049.47;5164244;28;20054;-57
2022/11/01 08:39:58;;;;;;;3.30;0.60;;;20.00;90.10;;;20.49;69.12;101062.75;5163617;28;20050;-57
2022/11/01 08:42:31;;;;;;;1.83;0.50;;;20.00;86.00;;;20.56;69.55;101069.78;5163857;28;20072;-57
2022/11/01 08:45:05;;;;;;;1.98;0.65;;;20.10;86.50;;;20.63;69.91;101065.34;5163654;28;20547;-58
2022/11/01 08:47:37;;;;;;;2.65;0.75;;;20.20;86.40;;;20.73;69.81;101074.16;5164038;28;20501;-57
2022/11/01 08:50:12;;;;;;;3.15;0.82;;;20.30;85.70;;;20.75;68.21;101062.69;5163347;28;20049;-57
2022/11/01 08:52:44;;;;;;;2.63;0.80;;;20.30;83.30;;;20.72;67.58;101065.31;5163657;28;20050;-59
2022/11/01 08:55:16;;;;;;;1.40;0.63;;;20.30;82.20;;;20.75;69.37;101067.97;5163763;28;20044;-58
2022/11/01 08:57:50;;;;;;;2.15;0.60;;;20.30;84.70;;;20.83;69.66;101060.88;5163683;28;20050;-55
2022/11/01 09:00:22;;;;;;;1.30;0.50;;;20.40;84.30;;;20.91;69.24;101067.94;5163204;28;20846;-56
2022/11/01 09:02:54;;;;;;;2.83;0.60;;;20.50;83.80;;;21.00;69.38;101073.22;5162752;28;20058;-56
2022/11/01 09:05:28;;;;;;;1.48;0.40;;;20.50;83.20;;;21.06;68.55;101083.75;5162994;28;20068;-56
2022/11/01 09:08:01;;;;;;;1.40;0.60;;;20.50;82.20;;;21.05;68.80;101090.84;5153528;28;20459;-55
2022/11/01 09:10:33;;;;;;;2.67;0.50;;;20.60;81.70;;;21.16;68.12;101093.47;5160868;28;20038;-58
2022/11/01 09:13:07;;;;;;;1.75;0.55;;;20.60;81.10;;;21.25;66.64;101101.34;5163586;28;20034;-57
2022/11/01 09:15:39;;;;;;;2.90;0.80;;;20.70;79.60;;;21.27;66.28;101098.72;5163324;28;20068;-58
2022/11/01 09:18:11;;;;;;;2.17;0.80;;;20.70;78.50;;;21.31;65.03;101096.06;5163149;28;20392;-58
2022/11/01 09:20:43;;;;;;;2.28;0.60;;;20.70;77.30;;;21.32;65.33;101091.63;5163312;28;20554;-57
2022/11/01 09:23:15;;;;;;;3.13;0.50;;;20.70;77.30;;;21.33;65.26;101096.97;5161653;28;20503;-58
2022/11/01 09:25:48;;;;;;;2.45;0.70;;;20.70;76.70;;;21.33;65.19;101094.31;5166385;28;20048;-54
2022/11/01 09:28:21;;;;;;;2.92;0.47;;;20.70;76.20;;;21.46;65.57;101094.25;5183389;28;20057;-54
2022/11/01 09:30:53;;;;;;;1.17;0.40;;;20.80;76.70;;;21.56;65.25;101098.59;5183022;28;20045;-55
2022/11/01 09:33:25;;;;;;;2.40;0.70;;;20.90;76.10;;;21.59;64.75;101088.00;5166311;28;20407;-55
2022/11/01 09:35:58;;;;;;;1.83;0.47;;;21.00;75.30;;;21.62;66.13;101095.91;5162774;28;20133;-54
2022/11/01 09:38:30;;;;;;;2.65;0.60;;;21.00;76.40;;;21.66;64.88;101093.25;5163283;28;20054;-54
2022/11/01 09:41:06;;;;;;;1.77;0.60;;;21.00;75.30;;;21.68;64.78;101103.84;5160572;28;20062;-55
2022/11/01 09:43:42;;;;;;;2.65;0.60;;;21.10;74.80;;;21.72;64.15;101096.75;5162143;28;20097;-54
2022/11/01 09:46:19;;;;;;;1.88;0.70;;;21.10;73.90;;;21.77;64.32;101105.53;5162841;28;20503;-56
2022/11/01 09:48:51;;;;;;;2.35;0.55;;;21.10;73.90;;;21.76;63.89;101109.97;5161138;28;20101;-57
2022/11/01 09:51:25;;;;;;;2.50;0.70;;;21.10;73.30;;;21.79;64.49;101104.66;5163139;28;20415;-57
2022/11/01 09:54:03;;;;;;;1.83;0.60;;;21.20;73.60;;;21.81;64.85;101108.19;5163169;28;20697;-57
2022/11/01 09:56:41;;;;;;;1.05;0.50;;;21.20;73.90;;;21.81;65.05;101110.84;5164187;28;20047;-56
2022/11/01 09:59:26;;;;;;;3.35;0.50;;;21.20;74.00;;;21.85;65.49;101104.63;5167238;28;20038;-57
2022/11/01 10:02:24;;;;;;;1.45;0.38;;;21.20;74.10;;;21.90;65.04;101108.09;5165477;28;20066;-56
2022/11/01 10:05:15;;;;;;;2.30;0.60;;;21.30;73.70;;;21.91;66.41;101115.19;5166925;28;20046;-56
2022/11/01 10:08:00;;;;;;;1.45;0.50;;;21.30;74.40;;;21.93;66.53;101112.53;5166952;28;20129;-55
2022/11/01 10:10:39;;;;;;;1.75;0.65;;;21.30;74.50;;;21.98;67.12;101112.50;5166279;28;20051;-55
2022/11/01 10:13:34;;;;;;;1.05;0.40;;;21.40;75.20;;;22.02;67.93;101111.56;5166960;28;20053;-55
2022/11/01 10:16:17;;;;;;;3.08;0.60;;;21.40;75.70;;;22.07;67.97;101110.66;5166945;28;20523;-57
2022/11/01 10:18:56;;;;;;;2.13;0.65;;;21.50;75.90;;;22.05;67.07;101117.75;5167177;28;20407;-57
2022/11/01 10:21:41;;;;;;;2.42;0.70;;;21.40;75.00;;;22.02;66.61;101122.19;5166931;28;20046;-56
2022/11/01 10:24:25;;;;;;;1.13;0.63;;;21.40;74.30;;;22.05;65.93;101124.84;5165432;28;20054;-56
2022/11/01 10:27:04;;;;;;;1.73;0.57;;;21.40;73.60;;;22.05;65.58;101133.69;5166993;28;20046;-56
2022/11/01 10:29:46;;;;;;;2.03;0.55;;;21.40;73.10;;;22.05;64.19;101138.13;5166649;28;20042;-54
2022/11/01 10:32:32;;;;;;;3.15;0.63;;;21.40;71.80;;;21.92;62.09;101138.19;5174483;28;20499;-54
2022/11/01 10:35:12;;;;;;;1.98;0.60;;;21.30;69.70;;;21.86;62.01;101119.66;5160648;28;20042;-56
2022/11/01 10:37:50;;;;;;;1.55;0.65;;;21.30;69.20;;;21.83;63.47;101122.31;5165615;28;20047;-54
2022/11/01 10:40:28;;;;;;;2.13;0.45;;;21.30;70.50;;;21.85;63.66;101131.16;5166418;28;20128;-55
2022/11/01 10:43:01;;;;;;;2.60;0.45;;;21.30;70.70;;;21.92;65.29;101118.72;5166616;28;20057;-54
2022/11/01 10:45:33;;;;;;;2.10;0.50;;;21.30;72.00;;;21.98;64.37;101115.16;5164653;28;20054;-54
2022/11/01 10:48:07;;;;;;;3.22;0.82;;;21.40;71.30;;;22.01;64.69;101121.31;5166124;28;20422;-55
2022/11/01 10:50:39;;;;;;;1.65;0.50;;;21.40;71.50;;;22.08;63.56;101122.16;5166092;28;20043;-55